Peterson, Indiana
Current Conditions -  °F | °C
As of 11:54 PM on Friday 24 Oct 2014 (Local Time) from KFWA Reporting Station
Haze Haze  
Wind Chill: 46°   Ceiling: Unl
Heat Index: 49°   Visibility: 5mi
Dew Point: 47°   Wind: 7mph
Humidity: 93%   Direction: 220°SW
Pressure: 30"   Gusts: NA
Location:  40.8317°N, 84.9398°W
Report Text: KFWA 250354Z 22006KT 5SM BR FEW220 09/08 A3000 RMK AO2 SLP158 T00940083
Loading
Personal Weather Stations






























Interactive Weather Map
Tropical Storm Tracking
New forecast layout! Learn more

10-Day Weather Forecast

Advertisements
Track Severe Weather on mobile